Time;durP1;ratioP1;P1;durP2;ratioP2;P2;SDS_P1;SDS_P2;PMS_P1;PMS_P2;Temp;Humidity;BMP_temperature;BMP_pressure;BME280_temperature;BME280_humidity;BME280_pressure;Samples;Min_cycle;Max_cycle;Signal;HPM_P1;HPM_P2
2022/10/04 00:01:22;;;;;;;5.60;1.50;;;12.20;99.90;;;;;;4223083;28;20207;-75
2022/10/04 00:03:28;;;;;;;1.70;1.07;;;12.20;99.90;;;;;;4206460;28;20211;-74
2022/10/04 00:05:31;;;;;;;5.47;1.70;;;12.20;99.90;;;;;;4224812;28;20935;-75
2022/10/04 00:07:37;;;;;;;4.37;1.37;;;12.20;99.90;;;;;;4222849;28;20218;-74
2022/10/04 00:09:45;;;;;;;6.37;1.50;;;12.20;99.90;;;;;;4220234;28;20212;-74
2022/10/04 00:11:52;;;;;;;5.00;1.60;;;12.10;99.90;;;;;;4222565;28;20294;-74
2022/10/04 00:13:59;;;;;;;1.53;1.00;;;12.10;99.90;;;;;;4196320;28;20251;-73
2022/10/04 00:16:02;;;;;;;2.00;1.23;;;12.10;99.90;;;;;;4222140;28;20196;-74
2022/10/04 00:18:18;;;;;;;3.80;1.30;;;12.10;99.90;;;;;;4217063;28;20256;-74
2022/10/04 00:20:56;;;;;;;3.83;1.23;;;12.10;99.90;;;;;;4228049;28;20317;-74
2022/10/04 00:23:28;;;;;;;3.50;1.60;;;12.00;99.90;;;;;;4220656;28;20588;-76
2022/10/04 00:25:35;;;;;;;4.23;1.10;;;12.00;99.90;;;;;;4217384;28;20250;-75
2022/10/04 00:27:40;;;;;;;4.47;1.30;;;11.90;99.90;;;;;;4217876;28;20736;-74
2022/10/04 00:29:42;;;;;;;2.03;1.23;;;12.00;99.90;;;;;;4218471;28;20207;-75
2022/10/04 00:32:20;;;;;;;4.50;1.60;;;12.00;99.90;;;;;;4222186;28;20646;-74
2022/10/04 00:34:49;;;;;;;3.47;1.30;;;11.90;99.90;;;;;;4211918;28;20812;-74
2022/10/04 00:36:53;;;;;;;4.23;1.20;;;11.90;99.90;;;;;;4214388;28;20219;-74
2022/10/04 00:39:17;;;;;;;3.07;1.60;;;11.90;99.90;;;;;;4211821;28;20327;-76
2022/10/04 00:41:21;;;;;;;3.43;1.07;;;11.90;99.90;;;;;;4215458;28;20215;-75
2022/10/04 00:43:29;;;;;;;3.20;1.30;;;11.90;99.90;;;;;;4221332;28;20212;-74
2022/10/04 00:45:38;;;;;;;3.07;1.23;;;11.90;99.90;;;;;;4199253;28;20221;-74
2022/10/04 00:48:03;;;;;;;2.97;1.40;;;11.90;99.90;;;;;;4204616;28;20226;-76
2022/10/04 00:50:16;;;;;;;4.27;1.30;;;11.90;99.90;;;;;;4220691;28;20233;-74
2022/10/04 00:52:22;;;;;;;2.30;1.27;;;11.80;99.90;;;;;;4220147;28;20214;-75
2022/10/04 00:54:31;;;;;;;2.50;1.30;;;11.90;99.90;;;;;;4202198;28;20216;-75
2022/10/04 00:56:40;;;;;;;5.27;1.40;;;11.90;99.90;;;;;;4215490;28;20706;-75
2022/10/04 00:59:20;;;;;;;1.47;1.00;;;11.80;99.90;;;;;;4218438;28;20236;-76
2022/10/04 01:01:26;;;;;;;3.77;1.30;;;11.80;99.90;;;;;;4220192;28;20231;-74
2022/10/04 01:03:32;;;;;;;1.77;1.30;;;11.80;99.90;;;;;;4214378;28;20204;-74
2022/10/04 01:05:36;;;;;;;4.50;1.27;;;11.80;99.90;;;;;;4228417;28;20232;-75
2022/10/04 01:07:42;;;;;;;3.27;1.20;;;11.80;99.90;;;;;;4230765;28;20197;-75
2022/10/04 01:09:53;;;;;;;3.70;1.40;;;11.80;99.90;;;;;;4237491;28;20208;-75
2022/10/04 01:12:02;;;;;;;3.90;1.20;;;11.70;99.90;;;;;;4233345;28;20206;-74
2022/10/04 01:14:11;;;;;;;2.33;1.10;;;11.80;99.90;;;;;;4232399;28;20225;-74
2022/10/04 01:16:17;;;;;;;3.57;1.37;;;11.80;99.90;;;;;;4230228;28;20219;-76
2022/10/04 01:18:29;;;;;;;4.77;1.30;;;11.80;99.90;;;;;;4217983;28;20235;-74
2022/10/04 01:20:37;;;;;;;3.27;1.33;;;11.70;99.90;;;;;;4220088;28;20302;-74
2022/10/04 01:22:43;;;;;;;2.23;1.40;;;11.70;99.90;;;;;;4219965;28;20782;-76
2022/10/04 01:24:45;;;;;;;4.27;1.30;;;11.70;99.90;;;;;;4214642;28;20228;-75
2022/10/04 01:26:47;;;;;;;2.23;1.23;;;11.70;99.90;;;;;;4219858;28;20299;-76
2022/10/04 01:28:48;;;;;;;2.53;1.30;;;11.70;99.90;;;;;;4217617;28;20598;-79
2022/10/04 01:30:50;;;;;;;4.03;1.43;;;11.70;99.90;;;;;;4218163;28;20230;-75
2022/10/04 01:32:52;;;;;;;3.63;1.60;;;11.60;99.90;;;;;;4211646;28;20209;-74
2022/10/04 01:34:55;;;;;;;2.27;1.00;;;11.60;99.90;;;;;;4212014;28;20205;-74
2022/10/04 01:36:59;;;;;;;3.80;1.23;;;11.60;99.90;;;;;;4211967;28;20216;-75
2022/10/04 01:39:04;;;;;;;5.53;1.73;;;11.60;99.90;;;;;;4211934;28;20310;-74
2022/10/04 01:41:07;;;;;;;5.73;1.50;;;11.60;99.90;;;;;;4216490;28;20294;-76
2022/10/04 01:43:14;;;;;;;8.90;1.50;;;11.60;99.90;;;;;;4203448;28;20220;-74
2022/10/04 01:45:21;;;;;;;4.97;1.33;;;11.60;99.90;;;;;;4220702;28;20233;-73
2022/10/04 01:47:29;;;;;;;6.27;1.63;;;11.60;99.90;;;;;;4221591;28;20211;-74
2022/10/04 01:49:37;;;;;;;4.17;1.20;;;11.60;99.90;;;;;;4223067;28;20223;-73
2022/10/04 01:51:44;;;;;;;4.97;2.00;;;11.60;99.90;;;;;;4222536;28;20207;-74
2022/10/04 01:53:50;;;;;;;4.50;1.33;;;11.50;99.90;;;;;;4226157;28;20215;-74
2022/10/04 01:56:03;;;;;;;3.57;1.40;;;11.60;99.90;;;;;;4220213;28;20286;-74
2022/10/04 01:58:11;;;;;;;4.60;1.37;;;11.60;99.90;;;;;;4219923;28;20229;-75
2022/10/04 02:00:14;;;;;;;3.63;1.30;;;11.50;99.90;;;;;;4226141;28;20238;-75
2022/10/04 02:02:25;;;;;;;5.03;1.10;;;11.50;99.90;;;;;;4222583;28;20213;-75
2022/10/04 02:04:30;;;;;;;4.63;1.37;;;11.50;99.90;;;;;;4217282;28;20212;-75
2022/10/04 02:06:37;;;;;;;4.17;1.33;;;11.60;99.90;;;;;;4226221;28;20215;-76
2022/10/04 02:08:44;;;;;;;4.40;1.30;;;11.50;99.90;;;;;;4206112;28;20239;-75
2022/10/04 02:10:54;;;;;;;3.10;1.20;;;11.50;99.90;;;;;;4204747;28;20218;-75
2022/10/04 02:12:58;;;;;;;7.93;1.30;;;11.50;99.90;;;;;;4228141;28;20203;-75
2022/10/04 02:15:04;;;;;;;4.80;1.67;;;11.50;99.90;;;;;;4218820;28;20299;-75
2022/10/04 02:17:09;;;;;;;3.53;1.33;;;11.50;99.90;;;;;;4202466;28;20212;-74
2022/10/04 02:19:13;;;;;;;4.37;1.40;;;11.50;99.90;;;;;;4220578;28;20238;-76
2022/10/04 02:21:16;;;;;;;3.77;1.13;;;11.50;99.90;;;;;;4205320;28;20214;-74
2022/10/04 02:23:20;;;;;;;2.17;1.10;;;11.40;99.90;;;;;;4216397;28;20661;-77
2022/10/04 02:25:23;;;;;;;3.07;1.23;;;11.50;99.90;;;;;;4208565;28;20232;-75
2022/10/04 02:27:27;;;;;;;5.37;1.80;;;11.50;99.90;;;;;;4220483;28;20504;-75
2022/10/04 02:29:31;;;;;;;3.50;1.03;;;11.50;99.90;;;;;;4220977;28;20304;-75
2022/10/04 02:33:57;;;;;;;3.97;1.30;;;11.40;99.90;;;;;;4202703;28;20203;-76
2022/10/04 02:35:59;;;;;;;5.40;1.47;;;11.40;99.90;;;;;;4223091;28;20649;-75
2022/10/04 02:38:09;;;;;;;5.50;1.50;;;11.40;99.90;;;;;;4219373;28;20659;-75
2022/10/04 02:40:14;;;;;;;3.63;1.23;;;11.40;99.90;;;;;;4220062;28;20286;-78
2022/10/04 02:42:23;;;;;;;5.47;1.57;;;11.30;99.90;;;;;;4221200;28;20238;-75
2022/10/04 02:44:28;;;;;;;5.70;1.73;;;11.30;99.90;;;;;;4221840;28;20660;-75
2022/10/04 02:46:36;;;;;;;8.53;1.90;;;11.30;99.90;;;;;;4200032;28;20214;-79
2022/10/04 02:48:44;;;;;;;2.87;1.67;;;11.20;99.90;;;;;;4217021;28;20262;-77
2022/10/04 02:50:49;;;;;;;5.37;2.20;;;11.20;99.90;;;;;;4221027;28;20202;-76
2022/10/04 02:52:57;;;;;;;5.57;1.90;;;11.10;99.90;;;;;;4221155;28;20213;-74
2022/10/04 02:55:04;;;;;;;5.90;2.03;;;11.20;99.90;;;;;;4218441;28;20208;-75
2022/10/04 02:57:14;;;;;;;5.77;1.90;;;11.10;99.90;;;;;;4222290;28;20206;-76
2022/10/04 02:59:17;;;;;;;6.00;1.97;;;11.10;99.90;;;;;;4216084;28;20230;-75
2022/10/04 03:01:26;;;;;;;5.30;1.90;;;11.10;99.90;;;;;;4208207;28;20218;-74
2022/10/04 03:03:30;;;;;;;6.13;1.80;;;11.00;99.90;;;;;;4213644;28;20210;-74
2022/10/04 03:05:33;;;;;;;5.67;2.23;;;11.00;99.90;;;;;;4213149;28;20788;-74
2022/10/04 03:07:36;;;;;;;3.50;1.93;;;11.00;99.90;;;;;;4213658;28;21122;-74
2022/10/04 03:09:40;;;;;;;5.70;2.10;;;10.90;99.90;;;;;;4213226;28;20222;-76
2022/10/04 03:11:42;;;;;;;4.67;2.30;;;11.00;99.90;;;;;;4217049;28;20217;-74
2022/10/04 03:13:49;;;;;;;3.40;1.60;;;10.90;99.90;;;;;;4226745;28;20301;-76
2022/10/04 03:15:51;;;;;;;2.73;1.70;;;10.90;99.90;;;;;;4201840;28;20211;-74
2022/10/04 03:17:53;;;;;;;5.17;2.00;;;10.90;99.90;;;;;;4213420;28;20566;-78
2022/10/04 03:19:57;;;;;;;3.40;1.87;;;10.90;99.90;;;;;;4221635;28;20206;-74
2022/10/04 03:22:02;;;;;;;5.07;2.30;;;10.80;99.90;;;;;;4202275;28;20211;-78
2022/10/04 03:24:06;;;;;;;3.37;2.00;;;10.80;99.90;;;;;;4199460;28;20291;-73
2022/10/04 03:26:19;;;;;;;3.63;1.70;;;10.70;99.90;;;;;;4218233;28;20212;-73
2022/10/04 03:28:22;;;;;;;4.10;2.10;;;10.70;99.90;;;;;;4213646;28;20253;-73
2022/10/04 03:30:24;;;;;;;5.90;1.87;;;10.70;99.90;;;;;;4217454;28;20202;-75
2022/10/04 03:32:29;;;;;;;7.70;2.30;;;10.70;99.90;;;;;;4222167;28;20206;-74
2022/10/04 03:34:35;;;;;;;8.40;2.53;;;10.70;99.90;;;;;;4225660;28;20216;-73
2022/10/04 03:36:40;;;;;;;5.13;2.30;;;10.60;99.90;;;;;;4211320;28;20261;-73
2022/10/04 03:38:42;;;;;;;5.50;2.10;;;10.60;99.90;;;;;;4212885;28;20317;-74
2022/10/04 03:40:52;;;;;;;6.83;2.70;;;10.60;99.90;;;;;;4212751;28;20210;-74
2022/10/04 03:42:55;;;;;;;5.00;2.07;;;10.60;99.90;;;;;;4221020;28;20201;-74
2022/10/04 03:45:01;;;;;;;4.83;2.43;;;10.60;99.90;;;;;;4204975;28;20305;-73
2022/10/04 03:47:09;;;;;;;5.47;2.30;;;10.60;99.90;;;;;;4218659;28;20300;-73
2022/10/04 03:49:14;;;;;;;7.40;2.33;;;10.50;99.90;;;;;;4208003;28;20233;-76
2022/10/04 03:51:20;;;;;;;6.63;2.20;;;10.50;99.90;;;;;;4219563;28;20205;-74
2022/10/04 03:53:30;;;;;;;6.07;2.10;;;10.50;99.90;;;;;;4201181;28;20217;-75
2022/10/04 03:55:34;;;;;;;3.73;1.90;;;10.50;99.90;;;;;;4196775;28;20211;-74
2022/10/04 03:57:37;;;;;;;6.70;2.23;;;10.50;99.90;;;;;;4200984;28;20215;-76
2022/10/04 03:59:42;;;;;;;5.33;2.80;;;10.40;99.90;;;;;;4221980;28;20235;-73
2022/10/04 04:01:47;;;;;;;6.90;2.30;;;10.40;99.90;;;;;;4230442;28;20235;-73
2022/10/04 04:03:59;;;;;;;4.97;2.47;;;10.40;99.90;;;;;;4212396;28;20233;-73
2022/10/04 04:06:12;;;;;;;4.93;2.30;;;10.40;99.90;;;;;;4221888;28;20232;-76
2022/10/04 04:08:18;;;;;;;4.67;2.47;;;10.40;99.90;;;;;;4215195;28;20602;-76
2022/10/04 04:10:26;;;;;;;5.37;2.20;;;10.40;99.90;;;;;;4202263;28;20206;-74
2022/10/04 04:12:37;;;;;;;4.43;2.07;;;10.40;99.90;;;;;;4223852;28;20297;-74
2022/10/04 04:14:40;;;;;;;5.50;2.07;;;10.30;99.90;;;;;;4220551;28;20200;-74
2022/10/04 04:16:45;;;;;;;5.70;2.10;;;10.30;99.90;;;;;;4221960;28;20786;-75
2022/10/04 04:18:49;;;;;;;5.23;1.90;;;10.30;99.90;;;;;;4215933;28;20270;-75
2022/10/04 04:20:57;;;;;;;3.63;2.17;;;10.20;99.90;;;;;;4220146;28;20210;-75
2022/10/04 04:23:04;;;;;;;7.07;1.83;;;10.20;99.90;;;;;;4204059;28;20208;-74
2022/10/04 04:25:14;;;;;;;3.87;1.63;;;10.20;99.90;;;;;;4212366;28;20206;-74
2022/10/04 04:27:18;;;;;;;5.13;1.70;;;10.20;99.90;;;;;;4198294;28;20703;-73
2022/10/04 04:29:24;;;;;;;3.37;1.63;;;10.10;99.90;;;;;;4214907;28;20229;-73
2022/10/04 04:31:31;;;;;;;4.40;2.00;;;10.10;99.90;;;;;;4216654;28;20573;-73
2022/10/04 04:33:42;;;;;;;3.57;1.60;;;10.10;99.90;;;;;;4220833;28;20297;-74
2022/10/04 04:35:45;;;;;;;3.03;1.83;;;10.10;99.90;;;;;;4219098;28;20243;-74
2022/10/04 04:38:02;;;;;;;4.40;1.50;;;10.10;99.90;;;;;;4212145;28;20209;-74
2022/10/04 04:40:20;;;;;;;3.10;1.67;;;10.00;99.90;;;;;;4200485;28;20205;-74
2022/10/04 04:42:28;;;;;;;5.23;1.70;;;10.00;99.90;;;;;;4212559;28;20292;-73
2022/10/04 04:44:30;;;;;;;2.63;1.80;;;10.10;99.90;;;;;;4218984;28;20224;-73
2022/10/04 04:46:32;;;;;;;6.50;1.80;;;10.00;99.90;;;;;;4217637;28;20308;-74
2022/10/04 04:48:34;;;;;;;3.37;1.83;;;10.00;99.90;;;;;;4226285;28;20345;-73
2022/10/04 04:50:39;;;;;;;6.10;2.20;;;10.00;99.90;;;;;;4222982;28;20205;-74
2022/10/04 04:52:43;;;;;;;4.97;2.10;;;10.00;99.90;;;;;;4208281;28;20209;-74
2022/10/04 04:54:48;;;;;;;3.70;1.93;;;9.90;99.90;;;;;;4205927;28;20730;-74
2022/10/04 04:56:53;;;;;;;5.33;2.50;;;10.00;99.90;;;;;;4227042;28;20197;-74
2022/10/04 04:59:01;;;;;;;4.00;2.07;;;9.90;99.90;;;;;;4223900;28;20277;-74
2022/10/04 05:01:06;;;;;;;5.07;2.60;;;9.90;99.90;;;;;;4221877;28;20205;-77
2022/10/04 05:03:18;;;;;;;6.17;2.70;;;9.90;99.90;;;;;;4202115;28;20644;-74
2022/10/04 05:05:22;;;;;;;5.30;2.57;;;9.90;99.90;;;;;;4219627;28;20277;-76
2022/10/04 05:07:24;;;;;;;3.37;2.10;;;9.90;99.90;;;;;;4221487;28;20204;-74
2022/10/04 05:09:29;;;;;;;5.47;2.53;;;9.90;99.90;;;;;;4213031;28;20256;-74
2022/10/04 05:11:34;;;;;;;6.40;3.07;;;9.90;99.90;;;;;;4219380;28;20204;-74
2022/10/04 05:13:41;;;;;;;7.17;3.10;;;9.90;99.90;;;;;;4216653;28;20192;-74
2022/10/04 05:15:44;;;;;;;5.70;3.33;;;9.90;99.90;;;;;;4214457;28;20565;-74
2022/10/04 05:17:46;;;;;;;7.83;3.53;;;9.90;99.90;;;;;;4213407;28;20255;-75
2022/10/04 05:19:49;;;;;;;8.93;4.10;;;9.90;99.90;;;;;;4207394;28;20213;-77
2022/10/04 05:21:53;;;;;;;6.77;3.40;;;9.90;99.90;;;;;;4223466;28;20665;-77
2022/10/04 05:23:56;;;;;;;6.93;3.10;;;9.80;99.90;;;;;;4204631;28;20218;-74
2022/10/04 05:26:01;;;;;;;5.83;2.70;;;9.80;99.90;;;;;;4218135;28;20733;-72
2022/10/04 05:28:05;;;;;;;6.43;2.70;;;9.90;99.90;;;;;;4225181;28;20248;-74
2022/10/04 05:30:14;;;;;;;4.67;2.70;;;9.80;99.90;;;;;;4224087;28;20208;-74
2022/10/04 05:32:29;;;;;;;6.93;2.60;;;9.90;99.90;;;;;;4222095;28;20204;-73
2022/10/04 05:34:36;;;;;;;5.17;2.33;;;9.80;99.90;;;;;;4224358;28;20197;-73
2022/10/04 05:36:49;;;;;;;5.67;2.63;;;9.90;99.90;;;;;;4222663;28;20650;-74
2022/10/04 05:39:02;;;;;;;5.03;2.53;;;9.90;99.90;;;;;;4215124;28;20217;-74
2022/10/04 05:41:09;;;;;;;4.53;2.20;;;9.90;99.90;;;;;;4218343;28;20659;-73
2022/10/04 05:43:22;;;;;;;3.80;2.17;;;9.90;99.90;;;;;;4225461;28;20208;-73
2022/10/04 05:45:27;;;;;;;4.77;2.50;;;9.90;99.90;;;;;;4221951;28;20184;-73
2022/10/04 05:47:31;;;;;;;4.27;2.53;;;9.90;99.90;;;;;;4223856;28;20672;-73
2022/10/04 05:49:37;;;;;;;5.50;2.60;;;9.90;99.90;;;;;;4224792;28;20221;-72
2022/10/04 05:51:50;;;;;;;4.17;2.37;;;9.90;99.90;;;;;;4224128;28;20216;-75
2022/10/04 05:53:53;;;;;;;5.37;2.57;;;9.90;99.90;;;;;;4222287;28;20257;-74
2022/10/04 05:56:01;;;;;;;10.17;2.67;;;9.90;99.90;;;;;;4229006;28;20206;-73
2022/10/04 05:58:22;;;;;;;5.53;2.67;;;9.90;99.90;;;;;;4210960;28;20233;-75
2022/10/04 06:00:37;;;;;;;7.57;2.47;;;9.90;99.90;;;;;;4224040;28;20205;-76
2022/10/04 06:03:13;;;;;;;5.77;2.23;;;9.90;99.90;;;;;;4217929;28;20295;-74
2022/10/04 06:05:21;;;;;;;8.93;2.57;;;9.90;99.90;;;;;;4213986;28;20201;-73
2022/10/04 06:07:29;;;;;;;4.43;2.00;;;9.90;99.90;;;;;;4209869;28;20680;-74
2022/10/04 06:09:56;;;;;;;4.97;2.43;;;9.90;99.90;;;;;;4216027;28;20228;-75
2022/10/04 06:12:06;;;;;;;4.87;2.40;;;10.00;99.90;;;;;;4214750;28;20263;-74
2022/10/04 06:14:55;;;;;;;6.90;2.83;;;10.00;99.90;;;;;;4223106;28;20235;-75
2022/10/04 06:17:16;;;;;;;7.03;2.53;;;10.00;99.90;;;;;;4213022;28;20209;-73
2022/10/04 06:19:37;;;;;;;5.50;2.00;;;10.00;99.90;;;;;;4218684;28;20283;-75
2022/10/04 06:22:00;;;;;;;4.17;2.20;;;10.00;99.90;;;;;;4205999;28;20297;-74
2022/10/04 06:24:09;;;;;;;4.67;2.20;;;10.10;99.90;;;;;;4217613;28;20255;-73
2022/10/04 06:26:14;;;;;;;4.77;2.43;;;10.10;99.90;;;;;;4223458;28;20239;-74
2022/10/04 06:28:20;;;;;;;4.47;2.07;;;10.10;99.90;;;;;;4226018;28;20261;-73
2022/10/04 06:30:22;;;;;;;7.83;2.63;;;10.10;99.90;;;;;;4202135;28;20317;-76
2022/10/04 06:32:43;;;;;;;3.87;1.97;;;10.20;99.90;;;;;;4200785;28;20333;-75
2022/10/04 06:35:09;;;;;;;4.90;2.10;;;10.20;99.90;;;;;;4226570;28;20206;-75
2022/10/04 06:37:25;;;;;;;4.20;2.03;;;10.20;99.90;;;;;;4210553;28;20206;-76
2022/10/04 06:39:58;;;;;;;4.73;1.90;;;10.20;99.90;;;;;;4211883;28;20775;-74
2022/10/04 06:42:35;;;;;;;5.53;2.07;;;10.30;99.90;;;;;;4223869;28;20247;-74
2022/10/04 06:44:59;;;;;;;4.73;1.90;;;10.30;99.90;;;;;;4200546;28;20219;-73
2022/10/04 06:47:15;;;;;;;3.33;2.00;;;10.30;99.90;;;;;;4225855;28;20711;-73
2022/10/04 06:49:39;;;;;;;3.03;1.87;;;10.40;99.90;;;;;;4229099;28;20757;-75
2022/10/04 06:52:04;;;;;;;2.93;1.97;;;10.50;99.90;;;;;;4227773;28;20861;-74
2022/10/04 06:54:21;;;;;;;4.40;1.93;;;10.40;99.90;;;;;;4231579;28;20228;-78
2022/10/04 06:56:32;;;;;;;3.37;1.70;;;10.50;99.90;;;;;;4236263;28;20210;-74
2022/10/04 06:59:04;;;;;;;3.53;2.10;;;10.50;99.90;;;;;;4229243;28;20276;-76
2022/10/04 07:01:22;;;;;;;6.73;2.20;;;10.50;99.90;;;;;;4222452;28;20569;-76
2022/10/04 07:03:28;;;;;;;6.20;1.87;;;10.60;99.90;;;;;;4223009;28;20714;-74
2022/10/04 07:05:33;;;;;;;7.80;2.80;;;10.70;99.90;;;;;;4202886;28;20290;-73
2022/10/04 07:07:40;;;;;;;6.10;2.50;;;10.70;99.90;;;;;;4221777;28;20219;-74
2022/10/04 07:09:43;;;;;;;4.73;2.13;;;10.70;99.90;;;;;;4225466;28;20686;-74
2022/10/04 07:11:50;;;;;;;4.67;2.00;;;10.80;99.90;;;;;;4219870;28;20207;-76
2022/10/04 07:13:56;;;;;;;3.63;2.20;;;10.80;99.90;;;;;;4221364;28;20644;-74
2022/10/04 07:16:03;;;;;;;4.47;2.23;;;10.80;99.90;;;;;;4218739;28;20579;-75
2022/10/04 07:18:13;;;;;;;4.33;1.93;;;10.90;99.90;;;;;;4218314;28;20905;-73
2022/10/04 07:20:21;;;;;;;3.77;1.97;;;10.90;99.90;;;;;;4218411;28;20205;-74
2022/10/04 07:22:29;;;;;;;3.70;1.63;;;10.90;99.90;;;;;;4216169;28;20202;-75
2022/10/04 07:24:46;;;;;;;5.63;1.97;;;11.00;99.90;;;;;;4224140;28;20237;-74
2022/10/04 07:26:50;;;;;;;2.57;1.60;;;11.10;99.90;;;;;;4199120;28;20314;-74
2022/10/04 07:31:24;;;;;;;5.13;1.90;;;11.20;99.90;;;;;;4205549;28;20295;-74
2022/10/04 07:33:28;;;;;;;3.20;1.77;;;11.20;99.90;;;;;;4220023;28;20834;-74
2022/10/04 07:35:36;;;;;;;3.73;1.93;;;11.30;99.90;;;;;;4199359;28;20208;-74
2022/10/04 07:37:49;;;;;;;1.63;1.40;;;11.30;99.90;;;;;;4217861;28;20322;-74
2022/10/04 07:39:57;;;;;;;3.10;1.50;;;11.40;99.90;;;;;;4199775;28;20261;-75
2022/10/04 07:42:13;;;;;;;3.20;1.67;;;11.50;99.90;;;;;;4217310;28;20300;-75
2022/10/04 07:44:23;;;;;;;3.77;1.90;;;11.50;99.90;;;;;;4217010;28;20204;-73
2022/10/04 07:46:44;;;;;;;7.00;2.47;;;11.60;99.90;;;;;;4218997;28;20203;-75
2022/10/04 07:48:48;;;;;;;6.07;2.00;;;11.60;99.90;;;;;;4202864;28;20239;-75
2022/10/04 07:51:00;;;;;;;5.40;2.10;;;11.70;99.90;;;;;;4219471;28;20208;-74
2022/10/04 07:53:07;;;;;;;3.53;2.13;;;11.70;99.90;;;;;;4200550;28;20596;-74
2022/10/04 07:55:21;;;;;;;4.83;2.10;;;11.80;99.90;;;;;;4208321;28;20302;-74
2022/10/04 07:57:31;;;;;;;6.07;1.60;;;11.80;99.90;;;;;;4220903;28;20203;-74
2022/10/04 07:59:41;;;;;;;4.77;1.63;;;11.90;99.90;;;;;;4217611;28;20309;-74
2022/10/04 08:01:48;;;;;;;3.73;1.50;;;11.90;99.90;;;;;;4203172;28;20228;-74
2022/10/04 08:04:11;;;;;;;4.17;1.60;;;12.00;99.90;;;;;;4219188;28;20599;-73
2022/10/04 08:06:19;;;;;;;2.50;1.60;;;12.00;99.90;;;;;;4217779;28;20216;-74
2022/10/04 08:08:36;;;;;;;2.60;1.40;;;12.10;99.90;;;;;;4198707;28;20235;-73
2022/10/04 08:10:50;;;;;;;5.40;1.60;;;12.10;99.90;;;;;;4219300;28;20210;-74
2022/10/04 08:12:57;;;;;;;4.63;1.70;;;12.20;99.90;;;;;;4218079;28;20794;-74
2022/10/04 08:15:20;;;;;;;5.30;2.00;;;12.20;99.90;;;;;;4219133;28;20196;-74
2022/10/04 08:17:37;;;;;;;5.90;1.90;;;12.30;99.90;;;;;;4219145;28;20666;-74
2022/10/04 08:19:49;;;;;;;4.67;1.77;;;12.40;99.90;;;;;;4218722;28;21196;-75
2022/10/04 08:22:00;;;;;;;5.07;1.90;;;12.40;99.90;;;;;;4220687;28;20217;-75
2022/10/04 08:24:16;;;;;;;3.17;1.70;;;12.50;99.90;;;;;;4217373;28;20219;-75
2022/10/04 08:26:37;;;;;;;6.47;2.20;;;12.50;99.90;;;;;;4216883;28;20669;-76
2022/10/04 08:31:16;;;;;;;7.07;2.10;;;12.60;99.90;;;;;;4218513;28;20244;-74
2022/10/04 08:33:28;;;;;;;4.67;1.67;;;12.60;99.90;;;;;;4215162;28;20212;-75
2022/10/04 08:35:36;;;;;;;3.20;1.77;;;12.70;99.90;;;;;;4213470;28;20641;-74
2022/10/04 08:37:45;;;;;;;4.57;1.70;;;12.80;99.90;;;;;;4199879;28;20261;-74
2022/10/04 08:40:01;;;;;;;2.77;1.60;;;12.80;99.90;;;;;;4206361;28;20266;-74
2022/10/04 08:45:48;;;;;;;3.63;1.80;;;12.90;99.90;;;;;;4199491;27;21268;-75
2022/10/04 08:48:29;;;;;;;3.67;1.90;;;13.00;99.90;;;;;;4167238;28;20231;-75
2022/10/04 08:51:01;;;;;;;4.77;2.10;;;13.10;99.90;;;;;;4139633;28;20712;-74
2022/10/04 08:53:27;;;;;;;7.20;2.10;;;13.10;99.90;;;;;;4179685;28;20213;-74
2022/10/04 08:55:52;;;;;;;4.13;2.00;;;13.20;99.90;;;;;;4193508;28;20214;-75
2022/10/04 08:58:32;;;;;;;4.80;1.93;;;13.20;99.90;;;;;;4186164;28;20213;-74
2022/10/04 09:00:55;;;;;;;8.60;2.23;;;13.30;99.90;;;;;;4199162;28;20293;-73
2022/10/04 09:03:27;;;;;;;6.50;2.80;;;13.30;99.90;;;;;;4198622;28;20213;-75
2022/10/04 09:05:42;;;;;;;11.90;2.27;;;13.40;99.90;;;;;;4200212;28;20575;-74
2022/10/04 09:08:22;;;;;;;4.87;1.90;;;13.50;99.90;;;;;;4195079;28;20630;-74
2022/10/04 09:10:39;;;;;;;7.37;1.90;;;13.50;99.90;;;;;;4195561;28;20644;-74
2022/10/04 09:13:02;;;;;;;6.93;1.93;;;13.60;99.90;;;;;;4197028;28;20248;-74
2022/10/04 09:15:26;;;;;;;4.60;2.10;;;13.60;99.90;;;;;;4198288;28;20260;-74
2022/10/04 09:17:38;;;;;;;7.30;2.43;;;13.70;99.90;;;;;;4191337;28;20687;-74
2022/10/04 09:19:54;;;;;;;3.27;2.10;;;13.70;99.90;;;;;;4198243;28;20269;-74
2022/10/04 09:22:16;;;;;;;9.13;2.10;;;13.80;99.90;;;;;;4198589;28;20225;-75
2022/10/04 09:24:42;;;;;;;5.90;2.27;;;13.80;99.90;;;;;;4198510;28;20222;-75
2022/10/04 09:26:45;;;;;;;6.97;2.20;;;13.80;99.90;;;;;;4198797;28;20211;-75
2022/10/04 09:29:47;;;;;;;6.70;2.63;;;13.90;99.90;;;;;;4199412;28;20231;-76
2022/10/04 09:32:25;;;;;;;5.43;2.10;;;13.90;99.90;;;;;;4129856;28;20305;-74
2022/10/04 09:34:41;;;;;;;4.10;2.33;;;14.00;99.90;;;;;;4145660;28;20231;-74
2022/10/04 09:37:04;;;;;;;8.00;2.40;;;14.00;99.90;;;;;;4176996;28;21109;-73
2022/10/04 09:39:43;;;;;;;6.87;2.23;;;14.00;99.90;;;;;;4205034;28;20238;-73
2022/10/04 09:42:11;;;;;;;5.07;2.07;;;14.10;99.90;;;;;;4215755;28;20218;-75
2022/10/04 09:44:46;;;;;;;6.77;2.53;;;14.10;99.90;;;;;;4206730;28;20257;-73
2022/10/04 09:47:12;;;;;;;3.67;2.03;;;14.10;99.90;;;;;;4206892;28;20266;-75
2022/10/04 09:49:34;;;;;;;7.20;2.40;;;14.20;99.90;;;;;;4201120;28;20273;-75
2022/10/04 09:51:53;;;;;;;6.50;2.57;;;14.20;99.90;;;;;;4196433;28;20264;-74
2022/10/04 09:54:18;;;;;;;4.60;2.07;;;14.20;99.90;;;;;;4196924;28;20210;-74
2022/10/04 09:56:47;;;;;;;6.67;2.33;;;14.20;99.90;;;;;;4174133;28;20244;-76
2022/10/04 09:59:20;;;;;;;4.57;2.40;;;14.20;99.90;;;;;;4187268;28;20233;-75
2022/10/04 10:01:29;;;;;;;6.27;2.57;;;14.30;99.90;;;;;;4188941;28;20639;-74
2022/10/04 10:04:07;;;;;;;7.53;2.40;;;14.30;99.90;;;;;;4187700;28;20584;-76
2022/10/04 10:06:35;;;;;;;11.00;2.60;;;14.30;99.90;;;;;;4189297;28;20265;-77
2022/10/04 10:08:48;;;;;;;5.13;2.37;;;14.20;99.90;;;;;;4164321;28;20661;-76
2022/10/04 10:13:42;;;;;;;4.73;2.20;;;14.40;99.90;;;;;;4185212;28;20209;-76
2022/10/04 10:15:58;;;;;;;5.53;2.67;;;14.50;99.90;;;;;;4186418;28;20207;-76
2022/10/04 10:18:14;;;;;;;5.63;2.23;;;14.50;99.90;;;;;;4189800;28;20260;-74
2022/10/04 10:20:48;;;;;;;7.33;2.00;;;14.60;99.90;;;;;;4186578;28;20418;-75
2022/10/04 10:23:25;;;;;;;5.63;2.17;;;14.60;99.90;;;;;;4183228;28;20212;-75
2022/10/04 10:25:46;;;;;;;5.80;2.40;;;14.70;99.90;;;;;;4186576;28;20213;-75
2022/10/04 10:28:06;;;;;;;5.30;2.10;;;14.70;99.90;;;;;;4187015;28;20204;-75
2022/10/04 10:30:22;;;;;;;4.27;2.13;;;14.70;99.90;;;;;;4187453;28;20201;-73
2022/10/04 10:32:47;;;;;;;5.67;2.00;;;14.80;99.90;;;;;;4182689;28;20216;-75
2022/10/04 10:35:18;;;;;;;4.50;1.63;;;14.80;99.90;;;;;;4180380;28;20213;-73
2022/10/04 10:37:37;;;;;;;7.10;2.00;;;14.90;99.90;;;;;;4183899;28;20287;-74
2022/10/04 10:40:15;;;;;;;2.40;1.60;;;14.90;99.90;;;;;;4186647;28;20339;-74
2022/10/04 10:42:37;;;;;;;3.90;1.57;;;15.00;99.90;;;;;;4184883;28;20301;-76
2022/10/04 10:45:05;;;;;;;4.80;1.87;;;15.10;99.90;;;;;;4182443;28;20716;-74
2022/10/04 10:47:29;;;;;;;4.10;2.00;;;15.10;99.90;;;;;;4178546;28;20209;-75
2022/10/04 10:49:48;;;;;;;2.73;1.27;;;15.20;99.90;;;;;;4187497;28;20226;-75
2022/10/04 10:52:16;;;;;;;4.30;1.30;;;15.20;99.90;;;;;;4181777;28;20294;-75
2022/10/04 10:54:41;;;;;;;3.03;1.27;;;15.30;99.90;;;;;;4184957;28;20258;-75
2022/10/04 10:56:50;;;;;;;5.57;1.90;;;15.40;99.90;;;;;;4184092;28;20195;-74
2022/10/04 10:59:23;;;;;;;3.47;1.07;;;15.50;99.90;;;;;;4178476;28;20229;-75
2022/10/04 11:02:03;;;;;;;3.03;1.20;;;15.60;99.90;;;;;;4183634;28;20710;-75
2022/10/04 11:04:53;;;;;;;2.43;1.00;;;15.70;99.90;;;;;;4186243;28;20226;-75
2022/10/04 11:07:25;;;;;;;6.30;2.03;;;15.80;99.90;;;;;;4170726;28;20929;-75
2022/10/04 11:09:30;;;;;;;2.43;1.13;;;15.90;99.90;;;;;;4178825;28;20249;-75
2022/10/04 11:11:49;;;;;;;2.47;1.20;;;16.00;99.90;;;;;;4186320;28;20259;-74
2022/10/04 11:14:20;;;;;;;3.43;1.40;;;16.10;99.90;;;;;;4181969;28;20321;-74
2022/10/04 11:16:46;;;;;;;3.37;1.30;;;16.30;99.90;;;;;;4184552;28;20214;-75
2022/10/04 11:19:28;;;;;;;3.30;1.27;;;16.50;99.90;;;;;;4185432;28;20225;-75
2022/10/04 11:22:10;;;;;;;6.53;1.77;;;16.60;99.90;;;;;;4148319;28;20219;-73
2022/10/04 11:24:52;;;;;;;4.60;2.03;;;16.70;99.90;;;;;;4181475;28;20228;-74
2022/10/04 11:27:11;;;;;;;3.27;1.70;;;16.80;99.90;;;;;;4184503;28;20204;-76
2022/10/04 11:29:27;;;;;;;5.33;1.60;;;16.90;99.90;;;;;;4184974;28;20227;-73
2022/10/04 11:32:16;;;;;;;3.27;1.30;;;17.00;99.90;;;;;;4185258;28;20213;-75
2022/10/04 11:35:00;;;;;;;7.33;2.30;;;17.10;99.90;;;;;;4182863;28;20211;-74
2022/10/04 11:37:11;;;;;;;3.73;1.87;;;17.20;99.90;;;;;;4116450;28;20219;-74
2022/10/04 11:39:33;;;;;;;4.80;1.70;;;17.40;99.90;;;;;;4185466;28;20896;-74
2022/10/04 11:41:51;;;;;;;4.80;1.70;;;17.50;99.90;;;;;;4188601;28;20206;-75
2022/10/04 11:44:14;;;;;;;5.30;2.00;;;17.60;99.90;;;;;;4180637;28;20694;-73
2022/10/04 11:46:34;;;;;;;4.10;1.50;;;17.80;99.90;;;;;;4184341;28;20731;-75
2022/10/04 11:48:52;;;;;;;5.40;2.03;;;18.00;99.90;;;;;;4185791;28;20230;-74